Terminal Aerodrome Forecast
Issued by NWS Shreveport, LA

Home | Current Version | Previous Version | Text Only | Print | Product List | Glossary On
Versions: 1 2 3 4 5 6 7 8 9 10 11 12 13 14 15 16 17 18
077
FTUS44 KSHV 210520
TAFTXK
TAF
KTXK 210520Z 2106/2206 18004KT P6SM SCT100 SCT250
      TEMPO 2110/2114 5SM BR BKN008
     FM211400 18005KT 5SM BR VCSH OVC005
     FM211800 19006KT P6SM OVC015
     FM212100 20007KT P6SM VCTS OVC025CB
     FM220200 20008KT P6SM SCT035 BKN150=

USA.gov is the U.S. government's official web portal to all federal, state and local government web resources and services.